Time;durP1;ratioP1;P1;durP2;ratioP2;P2;SDS_P1;SDS_P2;PMS_P1;PMS_P2;Temp;Humidity;BMP_temperature;BMP_pressure;BME280_temperature;BME280_humidity;BME280_pressure;Samples;Min_cycle;Max_cycle;Signal;HPM_P1;HPM_P2
2023/09/02 00:02:26;;;;;;;5.57;2.22;;;15.50;99.90;;;;;;5144985;27;20421;-91
2023/09/02 00:04:51;;;;;;;4.32;2.00;;;15.50;99.90;;;;;;5156632;27;20027;-90
2023/09/02 00:07:20;;;;;;;5.60;1.85;;;15.60;99.90;;;;;;5152149;27;20042;-90
2023/09/02 00:09:45;;;;;;;5.10;1.85;;;15.60;99.90;;;;;;5157334;27;20531;-89
2023/09/02 00:12:11;;;;;;;3.15;1.80;;;15.60;99.90;;;;;;5149767;27;20034;-90
2023/09/02 00:14:37;;;;;;;2.75;1.83;;;15.60;99.90;;;;;;5150515;27;20479;-90
2023/09/02 00:17:05;;;;;;;1.80;1.70;;;15.60;99.90;;;;;;5146410;27;20039;-90
2023/09/02 00:19:34;;;;;;;2.70;1.80;;;15.60;99.90;;;;;;5138924;27;20495;-90
2023/09/02 00:21:59;;;;;;;7.93;1.73;;;15.60;99.90;;;;;;5146140;27;20023;-89
2023/09/02 00:24:28;;;;;;;3.33;1.92;;;15.60;99.90;;;;;;5145028;27;20485;-91
2023/09/02 00:26:53;;;;;;;1.77;1.55;;;15.60;99.90;;;;;;5149490;27;20031;-90
2023/09/02 00:29:22;;;;;;;1.38;1.27;;;15.60;99.90;;;;;;5148078;27;20026;-90
2023/09/02 00:31:47;;;;;;;2.58;1.55;;;15.60;99.90;;;;;;5141627;27;20019;-89
2023/09/02 00:34:13;;;;;;;3.15;2.00;;;15.60;99.90;;;;;;5151476;27;20042;-90
2023/09/02 00:36:39;;;;;;;1.50;1.40;;;15.60;99.90;;;;;;5155625;27;20022;-91
2023/09/02 00:39:05;;;;;;;1.60;1.50;;;15.60;99.90;;;;;;5144471;27;20027;-90
2023/09/02 00:41:47;;;;;;;1.98;1.40;;;15.70;99.90;;;;;;5143931;27;20404;-91
2023/09/02 00:44:12;;;;;;;2.65;1.80;;;15.70;99.90;;;;;;5131316;27;20425;-90
2023/09/02 00:46:38;;;;;;;4.10;2.13;;;15.70;99.90;;;;;;5149858;27;20030;-91
2023/09/02 00:49:04;;;;;;;2.33;1.90;;;15.60;99.90;;;;;;5146202;27;20046;-90
2023/09/02 00:51:32;;;;;;;7.50;1.95;;;15.70;99.90;;;;;;5146011;27;20031;-90
2023/09/02 00:53:58;;;;;;;2.45;1.90;;;15.70;99.90;;;;;;5150086;27;20086;-89
2023/09/02 00:56:25;;;;;;;2.58;1.70;;;15.70;99.90;;;;;;5140466;27;20023;-90
2023/09/02 00:58:53;;;;;;;3.67;1.85;;;15.60;99.90;;;;;;5133355;27;20035;-89
2023/09/02 01:01:19;;;;;;;2.17;1.92;;;15.60;99.90;;;;;;5141181;27;20101;-90
2023/09/02 01:03:46;;;;;;;3.28;1.83;;;15.60;99.90;;;;;;5133312;27;20053;-90
2023/09/02 01:06:14;;;;;;;4.00;2.03;;;15.60;99.90;;;;;;5146244;27;20044;-91
2023/09/02 01:08:39;;;;;;;10.57;2.88;;;15.60;99.90;;;;;;5149278;27;20349;-90
2023/09/02 01:11:08;;;;;;;5.75;2.35;;;15.60;99.90;;;;;;5140908;27;20045;-90
2023/09/02 01:13:34;;;;;;;3.78;2.28;;;15.60;99.90;;;;;;5116681;27;20039;-90
2023/09/02 01:16:03;;;;;;;8.57;2.50;;;15.50;99.90;;;;;;5141364;27;20027;-95
2023/09/02 01:18:29;;;;;;;7.70;2.60;;;15.50;99.90;;;;;;5151023;27;20320;-91
2023/09/02 01:21:19;;;;;;;9.20;2.20;;;15.50;99.90;;;;;;5142859;27;20468;-91
2023/09/02 01:24:04;;;;;;;4.28;2.40;;;15.40;99.90;;;;;;5154236;27;20027;-90
2023/09/02 01:27:02;;;;;;;9.73;2.20;;;15.30;99.90;;;;;;5148136;27;20118;-92
2023/09/02 01:29:34;;;;;;;7.28;2.50;;;15.30;99.90;;;;;;5133432;27;20035;-92
2023/09/02 01:32:09;;;;;;;7.82;2.70;;;15.20;99.90;;;;;;5138373;27;20023;-92
2023/09/02 01:34:37;;;;;;;8.80;2.28;;;15.10;99.90;;;;;;5151161;27;20035;-90
2023/09/02 01:37:10;;;;;;;4.55;2.58;;;15.00;99.90;;;;;;5157687;27;20477;-90
2023/09/02 01:39:42;;;;;;;5.00;2.58;;;15.00;99.90;;;;;;5155999;27;20092;-92
2023/09/02 01:42:09;;;;;;;8.50;2.53;;;15.00;99.90;;;;;;5153461;27;20399;-91
2023/09/02 01:44:39;;;;;;;3.45;2.35;;;14.90;99.90;;;;;;5151850;27;20034;-90
2023/09/02 01:47:05;;;;;;;8.18;2.15;;;14.90;99.90;;;;;;5127730;27;20054;-90
2023/09/02 01:49:32;;;;;;;4.80;2.22;;;14.90;99.90;;;;;;5152666;27;20523;-90
2023/09/02 01:52:02;;;;;;;4.82;2.45;;;14.90;99.90;;;;;;5148061;27;20334;-91
2023/09/02 01:54:28;;;;;;;5.80;3.45;;;14.90;99.90;;;;;;5151163;27;20065;-91
2023/09/02 01:56:56;;;;;;;5.20;2.80;;;14.90;99.90;;;;;;5152224;27;20026;-91
2023/09/02 01:59:21;;;;;;;2.90;2.38;;;14.90;99.90;;;;;;5155387;27;20061;-90
2023/09/02 02:01:50;;;;;;;2.22;2.03;;;14.90;99.90;;;;;;5150768;27;20042;-90
2023/09/02 02:04:24;;;;;;;7.82;2.50;;;14.90;99.90;;;;;;5137918;27;20106;-90
2023/09/02 02:06:53;;;;;;;6.90;2.40;;;15.00;99.90;;;;;;5144396;27;20026;-90
2023/09/02 02:09:58;;;;;;;3.50;2.33;;;15.00;99.90;;;;;;5150393;27;20026;-91
2023/09/02 02:12:25;;;;;;;2.55;2.35;;;15.00;99.90;;;;;;5043452;28;20037;-91
2023/09/02 02:14:51;;;;;;;3.28;2.20;;;15.00;99.90;;;;;;5118916;27;20395;-90
2023/09/02 02:17:17;;;;;;;2.90;2.10;;;15.10;99.90;;;;;;5153833;27;20026;-90
2023/09/02 02:19:44;;;;;;;2.08;1.88;;;15.10;99.90;;;;;;5143195;27;20251;-90
2023/09/02 02:22:11;;;;;;;2.03;1.92;;;15.10;99.90;;;;;;5138565;27;20748;-91
2023/09/02 02:24:36;;;;;;;4.03;2.58;;;15.20;99.90;;;;;;5134528;27;20031;-91
2023/09/02 02:27:12;;;;;;;5.32;2.22;;;15.20;99.90;;;;;;5122670;27;20068;-92
2023/09/02 02:29:44;;;;;;;5.55;1.88;;;15.20;99.90;;;;;;5149306;27;20038;-93
2023/09/02 02:32:13;;;;;;;2.80;1.95;;;15.20;99.90;;;;;;5151603;27;20054;-94
2023/09/02 02:34:39;;;;;;;2.13;1.90;;;15.20;99.90;;;;;;5145498;27;20026;-91
2023/09/02 02:37:04;;;;;;;4.20;1.98;;;15.30;99.90;;;;;;5148547;27;20378;-90
2023/09/02 02:39:30;;;;;;;3.58;2.13;;;15.30;99.90;;;;;;5152620;27;20090;-91
2023/09/02 02:41:58;;;;;;;6.07;2.38;;;15.30;99.90;;;;;;5155936;27;20018;-90
2023/09/02 02:44:24;;;;;;;3.70;2.30;;;15.30;99.90;;;;;;5154260;27;20027;-91
2023/09/02 02:46:52;;;;;;;3.75;2.65;;;15.30;99.90;;;;;;5130117;27;20025;-90
2023/09/02 02:49:18;;;;;;;2.20;2.00;;;15.30;99.90;;;;;;5136397;27;20034;-90
2023/09/02 02:51:47;;;;;;;3.92;1.95;;;15.30;99.90;;;;;;5148776;27;20030;-89
2023/09/02 02:54:12;;;;;;;3.38;2.15;;;15.30;99.90;;;;;;5148021;27;20614;-90
2023/09/02 02:56:38;;;;;;;2.30;1.90;;;15.30;99.90;;;;;;5152919;27;20033;-90
2023/09/02 02:59:07;;;;;;;1.98;1.85;;;15.30;99.90;;;;;;5149080;27;20019;-89
2023/09/02 03:01:32;;;;;;;2.38;2.17;;;15.30;99.90;;;;;;5131092;27;20039;-90
2023/09/02 03:04:01;;;;;;;4.22;1.95;;;15.30;99.90;;;;;;5149535;27;20022;-90
2023/09/02 03:06:29;;;;;;;12.05;2.10;;;15.30;99.90;;;;;;5133093;27;20484;-92
2023/09/02 03:08:55;;;;;;;4.13;2.17;;;15.30;99.90;;;;;;5145863;27;20450;-91
2023/09/02 03:11:23;;;;;;;4.82;1.90;;;15.20;99.90;;;;;;5148155;27;20082;-90
2023/09/02 03:13:49;;;;;;;2.47;2.03;;;15.20;99.90;;;;;;5157326;27;20090;-90
2023/09/02 03:16:15;;;;;;;13.93;2.63;;;15.20;99.90;;;;;;5145591;27;20051;-90
2023/09/02 03:18:43;;;;;;;2.63;1.90;;;15.20;99.90;;;;;;5123817;27;20026;-91
2023/09/02 03:21:09;;;;;;;4.20;2.20;;;15.10;99.90;;;;;;5147113;27;20031;-90
2023/09/02 03:23:37;;;;;;;2.95;2.00;;;15.20;99.90;;;;;;5133768;27;20122;-90
2023/09/02 03:26:15;;;;;;;2.28;2.05;;;15.10;99.90;;;;;;5139077;27;20106;-91
2023/09/02 03:28:42;;;;;;;3.25;1.98;;;15.20;99.90;;;;;;5141375;27;20031;-91
2023/09/02 03:31:08;;;;;;;1.95;1.52;;;15.20;99.90;;;;;;5159518;27;20014;-89
2023/09/02 03:33:35;;;;;;;3.85;1.90;;;15.10;99.90;;;;;;5157545;27;20371;-89
2023/09/02 03:36:01;;;;;;;1.65;1.55;;;15.20;99.90;;;;;;5146747;27;20022;-90
2023/09/02 03:38:28;;;;;;;3.42;2.00;;;15.20;99.90;;;;;;5153665;27;20023;-90
2023/09/02 03:41:09;;;;;;;2.85;2.10;;;15.10;99.90;;;;;;5157050;27;20038;-88
2023/09/02 03:43:34;;;;;;;4.43;2.10;;;15.10;99.90;;;;;;5142503;27;20047;-90
2023/09/02 03:46:00;;;;;;;3.65;1.88;;;15.10;99.90;;;;;;5155586;27;20057;-90
2023/09/02 03:48:28;;;;;;;10.75;2.50;;;15.20;99.90;;;;;;5159225;27;20026;-90
2023/09/02 03:51:05;;;;;;;2.53;2.10;;;15.20;99.90;;;;;;5147626;27;20022;-90
2023/09/02 03:53:32;;;;;;;2.53;2.10;;;15.10;99.90;;;;;;5159210;27;20074;-90
2023/09/02 03:55:58;;;;;;;6.03;2.42;;;15.10;99.90;;;;;;5146781;27;20056;-93
2023/09/02 03:58:28;;;;;;;4.68;1.95;;;15.10;99.90;;;;;;5148859;27;20016;-92
2023/09/02 04:00:54;;;;;;;1.92;1.80;;;15.10;99.90;;;;;;5138219;27;20030;-92
2023/09/02 04:03:21;;;;;;;2.83;1.98;;;15.10;99.90;;;;;;5159039;27;20364;-90
2023/09/02 04:05:47;;;;;;;5.35;2.08;;;15.10;99.90;;;;;;5135930;27;20494;-90
2023/09/02 04:08:15;;;;;;;3.05;1.95;;;15.10;99.90;;;;;;5146618;27;20155;-89
2023/09/02 04:10:44;;;;;;;2.70;1.90;;;15.10;99.90;;;;;;5136007;27;20110;-90
2023/09/02 04:13:09;;;;;;;3.33;1.92;;;15.10;99.90;;;;;;5147848;27;20019;-90
2023/09/02 04:15:38;;;;;;;2.10;1.90;;;15.10;99.90;;;;;;5148210;27;20034;-94
2023/09/02 04:18:06;;;;;;;3.90;1.90;;;15.10;99.90;;;;;;5146092;27;20029;-90
2023/09/02 04:20:36;;;;;;;2.30;1.85;;;15.10;99.90;;;;;;5139409;27;20035;-90
2023/09/02 04:23:01;;;;;;;2.08;1.85;;;15.10;99.90;;;;;;5142509;27;20018;-90
2023/09/02 04:25:28;;;;;;;1.70;1.58;;;15.10;99.90;;;;;;5151198;27;20018;-93
2023/09/02 04:27:54;;;;;;;1.65;1.38;;;15.10;99.90;;;;;;5157754;27;20030;-91
2023/09/02 04:30:25;;;;;;;1.90;1.80;;;15.10;99.90;;;;;;5158029;27;20026;-90
2023/09/02 04:32:50;;;;;;;1.58;1.48;;;15.10;99.90;;;;;;5153249;27;20023;-90
2023/09/02 04:35:16;;;;;;;2.00;1.90;;;15.20;99.90;;;;;;5142982;27;20022;-90
2023/09/02 04:37:45;;;;;;;1.98;1.65;;;15.10;99.90;;;;;;5143843;27;20075;-90
2023/09/02 04:40:13;;;;;;;1.85;1.70;;;15.10;99.90;;;;;;5145450;27;20050;-94
2023/09/02 04:42:41;;;;;;;1.70;1.60;;;15.20;99.90;;;;;;5136491;27;20417;-91
2023/09/02 04:45:11;;;;;;;4.10;1.75;;;15.20;99.90;;;;;;5157311;27;20019;-91
2023/09/02 04:47:36;;;;;;;2.60;1.95;;;15.20;99.90;;;;;;5147696;27;20102;-90
2023/09/02 04:50:02;;;;;;;4.63;1.92;;;15.20;99.90;;;;;;5152496;27;20102;-91
2023/09/02 04:52:28;;;;;;;4.93;2.25;;;15.20;99.90;;;;;;5154899;27;20022;-93
2023/09/02 04:54:59;;;;;;;4.25;1.98;;;15.10;99.90;;;;;;5153233;27;20018;-91
2023/09/02 04:57:25;;;;;;;1.80;1.70;;;15.20;99.90;;;;;;5129056;27;20387;-92
2023/09/02 04:59:51;;;;;;;4.20;2.60;;;15.20;99.90;;;;;;5159214;27;20034;-94
2023/09/02 05:02:17;;;;;;;7.05;1.55;;;15.20;99.90;;;;;;5147541;27;20019;-89
2023/09/02 05:04:42;;;;;;;1.98;1.63;;;15.20;99.90;;;;;;5134615;27;20379;-91
2023/09/02 05:07:08;;;;;;;2.97;1.58;;;15.20;99.90;;;;;;5128935;27;20492;-91
2023/09/02 05:09:34;;;;;;;2.72;1.77;;;15.20;99.90;;;;;;5142520;27;20501;-94
2023/09/02 05:12:00;;;;;;;1.38;1.27;;;15.20;99.90;;;;;;5141093;27;20384;-90
2023/09/02 05:14:25;;;;;;;1.65;1.55;;;15.20;99.90;;;;;;5146239;27;20049;-91
2023/09/02 05:16:51;;;;;;;1.45;1.35;;;15.20;99.90;;;;;;5137626;27;20380;-90
2023/09/02 05:19:19;;;;;;;1.60;1.50;;;15.30;99.90;;;;;;5140931;27;20035;-93
2023/09/02 05:21:48;;;;;;;1.60;1.50;;;15.30;99.90;;;;;;5143657;27;20070;-94
2023/09/02 05:24:16;;;;;;;1.58;1.45;;;15.40;99.90;;;;;;5135733;27;20234;-90
2023/09/02 05:26:42;;;;;;;2.13;1.35;;;15.40;99.90;;;;;;5147735;27;20553;-91
2023/09/02 05:29:11;;;;;;;5.97;1.48;;;15.40;99.90;;;;;;5150693;27;20018;-91
2023/09/02 05:31:36;;;;;;;1.50;1.40;;;15.40;99.90;;;;;;5125363;27;20113;-90
2023/09/02 05:34:02;;;;;;;1.40;1.30;;;15.40;99.90;;;;;;5136526;27;20043;-90
2023/09/02 05:36:27;;;;;;;1.30;1.20;;;15.40;99.90;;;;;;5156795;27;20031;-91
2023/09/02 05:38:53;;;;;;;4.07;1.10;;;15.50;99.90;;;;;;5144084;27;20498;-90
2023/09/02 05:41:19;;;;;;;1.70;1.20;;;15.50;99.90;;;;;;5127718;27;20047;-91
2023/09/02 05:43:44;;;;;;;2.20;1.27;;;15.50;99.90;;;;;;5155710;27;20391;-90
2023/09/02 05:46:13;;;;;;;1.42;1.33;;;15.50;99.90;;;;;;5133116;27;20027;-92
2023/09/02 05:48:41;;;;;;;1.38;1.30;;;15.50;99.90;;;;;;5143750;27;20463;-92
2023/09/02 05:51:07;;;;;;;1.00;1.00;;;15.50;99.90;;;;;;5139497;27;20395;-91
2023/09/02 05:53:32;;;;;;;1.35;1.25;;;15.60;99.90;;;;;;5145190;27;20029;-92
2023/09/02 05:55:58;;;;;;;1.10;1.10;;;15.60;99.90;;;;;;5150340;27;20019;-90
2023/09/02 05:58:28;;;;;;;1.42;1.33;;;15.60;99.90;;;;;;5141747;27;20031;-91
2023/09/02 06:00:53;;;;;;;2.65;1.27;;;15.70;99.90;;;;;;5143089;27;20151;-90
2023/09/02 06:03:19;;;;;;;8.57;2.90;;;15.70;99.90;;;;;;5151843;27;20023;-91
2023/09/02 06:05:47;;;;;;;5.03;1.50;;;15.70;99.90;;;;;;5135257;27;20486;-91
2023/09/02 06:08:13;;;;;;;2.38;1.70;;;15.80;99.90;;;;;;5140519;27;20601;-90
2023/09/02 06:10:38;;;;;;;6.50;1.60;;;15.80;99.90;;;;;;5138152;27;20376;-92
2023/09/02 06:13:04;;;;;;;1.50;1.40;;;15.80;99.90;;;;;;5134436;27;20065;-92
2023/09/02 06:15:29;;;;;;;1.52;1.42;;;15.90;99.90;;;;;;5125511;27;20030;-92
2023/09/02 06:17:55;;;;;;;1.80;1.40;;;15.90;99.90;;;;;;5146738;27;20164;-92
2023/09/02 06:20:22;;;;;;;1.23;1.05;;;15.90;99.90;;;;;;5146554;27;20047;-91
2023/09/02 06:22:48;;;;;;;1.70;1.10;;;15.90;99.90;;;;;;5139203;27;20075;-91
2023/09/02 06:25:14;;;;;;;1.38;1.27;;;16.00;99.90;;;;;;5149502;27;20034;-92
2023/09/02 06:27:40;;;;;;;1.92;1.42;;;16.00;99.90;;;;;;5147944;27;20035;-92
2023/09/02 06:30:06;;;;;;;1.30;1.17;;;16.00;99.90;;;;;;5123608;27;20042;-92
2023/09/02 06:32:33;;;;;;;2.22;1.02;;;16.00;99.90;;;;;;5151220;27;20128;-92
2023/09/02 06:34:58;;;;;;;1.00;1.00;;;16.10;99.90;;;;;;5153221;27;20094;-92
2023/09/02 06:37:29;;;;;;;1.00;1.00;;;16.10;99.90;;;;;;5147179;27;20403;-92
2023/09/02 06:39:54;;;;;;;1.30;1.10;;;16.10;99.90;;;;;;5145332;27;20075;-91
2023/09/02 06:42:20;;;;;;;4.38;2.17;;;16.20;99.90;;;;;;5147447;27;20048;-91
2023/09/02 06:44:53;;;;;;;5.18;2.67;;;16.30;99.90;;;;;;5153022;27;20023;-92
2023/09/02 06:47:19;;;;;;;2.63;2.40;;;16.30;99.90;;;;;;5167726;27;20510;-91
2023/09/02 06:49:44;;;;;;;2.60;2.40;;;16.40;99.90;;;;;;5148086;27;20110;-92
2023/09/02 06:52:10;;;;;;;3.75;3.03;;;16.30;99.90;;;;;;5138467;27;20026;-92
2023/09/02 06:54:35;;;;;;;4.25;2.65;;;16.40;99.90;;;;;;5136289;27;20440;-91
2023/09/02 06:57:01;;;;;;;8.02;2.55;;;16.40;99.90;;;;;;5147715;27;20378;-91
2023/09/02 06:59:29;;;;;;;3.45;2.03;;;16.40;99.90;;;;;;5166156;27;20038;-91
2023/09/02 07:01:55;;;;;;;4.95;2.13;;;16.50;99.90;;;;;;5139740;27;20029;-92
2023/09/02 07:04:21;;;;;;;1.73;1.63;;;16.50;99.90;;;;;;5152628;27;20023;-92
2023/09/02 07:06:46;;;;;;;2.50;2.22;;;16.50;99.90;;;;;;5126045;27;20664;-91
2023/09/02 07:09:12;;;;;;;2.50;2.10;;;16.50;99.90;;;;;;5145698;27;20151;-91
2023/09/02 07:11:37;;;;;;;2.95;2.20;;;16.50;99.90;;;;;;5137181;27;20094;-91
2023/09/02 07:14:03;;;;;;;3.28;2.65;;;16.60;99.90;;;;;;5146131;27;20030;-92
2023/09/02 07:16:29;;;;;;;9.18;3.22;;;16.60;99.90;;;;;;5151463;27;20046;-91
2023/09/02 07:18:57;;;;;;;5.43;2.83;;;16.60;99.90;;;;;;5158228;27;20050;-92
2023/09/02 07:21:23;;;;;;;7.70;4.18;;;16.70;99.90;;;;;;5149887;27;20494;-92
2023/09/02 07:23:49;;;;;;;4.70;3.90;;;16.70;99.90;;;;;;5153738;27;20055;-93
2023/09/02 07:26:15;;;;;;;4.40;3.95;;;16.70;99.90;;;;;;5159262;27;20053;-93
2023/09/02 07:28:42;;;;;;;6.70;4.43;;;16.80;99.90;;;;;;5138949;27;20079;-91
2023/09/02 07:31:09;;;;;;;6.18;5.43;;;16.80;99.90;;;;;;5153062;27;20018;-92
2023/09/02 07:33:35;;;;;;;6.60;5.03;;;16.90;99.90;;;;;;5168609;27;20546;-92
2023/09/02 07:36:12;;;;;;;6.57;4.70;;;16.90;99.90;;;;;;5166283;27;20485;-93
2023/09/02 07:38:39;;;;;;;6.38;5.78;;;16.90;99.90;;;;;;5156519;27;20475;-91
2023/09/02 07:41:05;;;;;;;11.18;5.65;;;17.00;99.90;;;;;;5154858;27;20132;-91
2023/09/02 07:43:32;;;;;;;6.05;5.45;;;17.00;99.90;;;;;;5149907;27;20034;-92
2023/09/02 07:45:58;;;;;;;6.47;5.88;;;17.00;99.90;;;;;;5157874;27;20568;-91
2023/09/02 07:48:25;;;;;;;6.80;5.28;;;17.00;99.90;;;;;;5154530;27;20118;-92
2023/09/02 07:50:50;;;;;;;6.43;5.32;;;17.10;99.90;;;;;;5152188;27;20358;-91
2023/09/02 07:53:16;;;;;;;11.43;6.20;;;17.10;99.90;;;;;;5147410;27;20068;-92
2023/09/02 07:55:42;;;;;;;9.73;5.45;;;17.10;99.90;;;;;;5145834;27;20019;-92
2023/09/02 07:58:07;;;;;;;5.80;5.20;;;17.20;99.90;;;;;;5148705;27;20493;-92
2023/09/02 08:00:34;;;;;;;6.75;5.95;;;17.20;99.90;;;;;;5142863;27;20043;-92
2023/09/02 08:03:00;;;;;;;7.03;5.28;;;17.20;99.90;;;;;;5149987;27;20034;-92
2023/09/02 08:05:26;;;;;;;6.53;5.45;;;17.20;99.90;;;;;;5144104;27;20104;-91
2023/09/02 08:07:51;;;;;;;6.20;5.60;;;17.20;99.90;;;;;;5137550;27;20030;-92
2023/09/02 08:10:17;;;;;;;5.63;5.15;;;17.20;99.90;;;;;;5144292;27;20050;-91
2023/09/02 08:12:43;;;;;;;6.00;5.25;;;17.30;99.90;;;;;;5125204;27;20029;-91
2023/09/02 08:15:13;;;;;;;5.13;4.68;;;17.30;99.90;;;;;;5150899;27;20027;-92
2023/09/02 08:17:43;;;;;;;6.30;5.65;;;17.30;99.90;;;;;;5124240;27;20030;-93
2023/09/02 08:20:09;;;;;;;11.82;6.03;;;17.30;99.90;;;;;;5136419;27;20516;-92
2023/09/02 08:22:41;;;;;;;5.60;4.78;;;17.40;99.90;;;;;;5154189;27;20529;-92
2023/09/02 08:25:07;;;;;;;5.03;4.50;;;17.50;99.90;;;;;;5153443;27;20498;-95
2023/09/02 08:27:32;;;;;;;6.15;4.72;;;17.50;99.90;;;;;;5153849;27;20182;-91
2023/09/02 08:29:58;;;;;;;7.80;4.20;;;17.50;99.90;;;;;;5148771;27;20712;-93
2023/09/02 08:32:24;;;;;;;8.20;3.53;;;17.60;99.90;;;;;;5144440;27;20107;-91
2023/09/02 08:34:51;;;;;;;5.53;3.40;;;17.60;99.90;;;;;;5140082;27;20109;-93
2023/09/02 08:37:17;;;;;;;3.30;3.00;;;17.70;99.90;;;;;;5143708;27;20031;-89
2023/09/02 08:39:43;;;;;;;5.78;3.47;;;17.70;99.90;;;;;;5149035;27;20050;-93
2023/09/02 08:42:09;;;;;;;4.97;3.28;;;17.70;99.90;;;;;;5168558;27;20022;-91
2023/09/02 08:44:35;;;;;;;2.70;2.50;;;17.80;99.90;;;;;;5138024;27;20024;-91
2023/09/02 08:47:05;;;;;;;3.60;2.40;;;17.80;99.90;;;;;;5160898;27;20109;-91
2023/09/02 08:49:31;;;;;;;4.03;2.53;;;17.80;99.90;;;;;;5140805;27;20029;-92
2023/09/02 08:51:57;;;;;;;2.53;2.33;;;17.80;99.90;;;;;;5141462;27;20015;-90
2023/09/02 08:54:23;;;;;;;4.55;3.05;;;17.90;99.90;;;;;;5154149;27;20095;-91
2023/09/02 08:56:49;;;;;;;3.08;2.80;;;17.90;99.90;;;;;;5140658;27;20618;-91
2023/09/02 08:59:16;;;;;;;3.33;2.40;;;18.00;99.90;;;;;;5152867;27;20081;-91
2023/09/02 09:01:43;;;;;;;3.22;2.40;;;18.00;99.90;;;;;;5154809;27;20502;-92
2023/09/02 09:04:10;;;;;;;2.30;2.10;;;18.00;99.90;;;;;;5158724;27;20127;-91
2023/09/02 09:06:37;;;;;;;3.35;2.60;;;18.10;99.90;;;;;;5145480;27;20329;-91
2023/09/02 09:09:03;;;;;;;2.30;2.20;;;18.10;99.90;;;;;;5144516;27;20031;-90
2023/09/02 09:11:35;;;;;;;3.92;2.25;;;18.10;99.90;;;;;;5137072;27;20111;-91
2023/09/02 09:14:02;;;;;;;3.08;2.47;;;18.20;99.90;;;;;;5115869;27;20033;-91
2023/09/02 09:16:33;;;;;;;2.17;1.98;;;18.20;99.90;;;;;;5146700;27;20026;-95
2023/09/02 09:19:01;;;;;;;2.35;1.95;;;18.20;99.90;;;;;;5143797;27;20523;-91
2023/09/02 09:21:26;;;;;;;2.00;1.90;;;18.30;99.90;;;;;;5144919;27;20034;-92
2023/09/02 09:23:52;;;;;;;2.03;1.90;;;18.30;99.90;;;;;;5153095;27;20460;-90
2023/09/02 09:26:19;;;;;;;2.13;1.80;;;18.30;99.90;;;;;;5151434;27;20034;-92
2023/09/02 09:28:52;;;;;;;1.83;1.73;;;18.40;99.90;;;;;;5143757;27;20023;-86
2023/09/02 09:31:19;;;;;;;1.60;1.50;;;18.50;99.90;;;;;;5146200;27;20031;-94
2023/09/02 09:33:53;;;;;;;1.85;1.45;;;18.50;99.90;;;;;;5147536;27;20023;-90
2023/09/02 09:36:21;;;;;;;1.83;1.40;;;18.50;99.90;;;;;;5135177;27;20027;-92
2023/09/02 09:38:48;;;;;;;1.23;0.77;;;18.50;99.90;;;;;;5151205;27;20079;-92
2023/09/02 09:41:14;;;;;;;1.20;1.10;;;18.50;99.90;;;;;;5141888;27;20051;-92
2023/09/02 09:43:40;;;;;;;1.02;1.00;;;18.50;99.90;;;;;;5133789;27;20380;-93
2023/09/02 09:46:05;;;;;;;3.05;1.70;;;18.50;99.90;;;;;;5145500;27;20030;-91
2023/09/02 09:48:31;;;;;;;1.10;1.00;;;18.50;99.90;;;;;;5131663;27;20023;-92
2023/09/02 09:50:57;;;;;;;1.15;1.02;;;18.60;99.90;;;;;;5145151;27;20459;-94
2023/09/02 09:53:45;;;;;;;1.30;1.20;;;18.60;99.90;;;;;;5138335;27;20031;-93
2023/09/02 09:56:11;;;;;;;0.88;0.88;;;18.70;99.90;;;;;;5142596;27;20115;-92
2023/09/02 09:58:37;;;;;;;4.00;1.25;;;18.70;99.90;;;;;;5147392;27;20118;-92
2023/09/02 10:01:02;;;;;;;0.80;0.80;;;18.80;99.90;;;;;;5151075;27;20041;-91
2023/09/02 10:03:31;;;;;;;1.40;0.93;;;18.80;99.90;;;;;;5137552;27;20022;-95
2023/09/02 10:06:01;;;;;;;0.98;0.88;;;18.90;99.90;;;;;;5148016;27;20060;-91
2023/09/02 10:08:53;;;;;;;0.80;0.80;;;18.90;99.90;;;;;;5126675;27;20198;-95
2023/09/02 10:11:24;;;;;;;0.90;0.90;;;18.90;99.90;;;;;;5129070;27;20030;-90
2023/09/02 10:13:53;;;;;;;0.80;0.80;;;19.00;99.90;;;;;;5149421;27;20023;-91
2023/09/02 10:16:23;;;;;;;1.13;1.10;;;19.00;99.90;;;;;;5135888;27;20027;-91
2023/09/02 10:18:50;;;;;;;1.50;1.00;;;19.20;99.90;;;;;;5140107;27;20033;-90
2023/09/02 10:21:17;;;;;;;0.93;0.93;;;19.20;99.90;;;;;;5129437;27;20042;-94
2023/09/02 10:23:54;;;;;;;2.70;1.00;;;19.20;99.90;;;;;;5142341;27;20030;-94
2023/09/02 10:26:31;;;;;;;3.70;1.27;;;19.30;99.90;;;;;;5146783;27;20327;-91
2023/09/02 10:29:00;;;;;;;1.40;1.30;;;19.30;99.90;;;;;;5133267;27;20038;-91
2023/09/02 10:31:38;;;;;;;1.10;1.00;;;19.30;99.90;;;;;;5128283;27;20030;-92
2023/09/02 10:34:27;;;;;;;1.27;1.10;;;19.30;99.90;;;;;;5144818;27;20027;-93
2023/09/02 10:36:57;;;;;;;1.08;0.90;;;19.30;99.90;;;;;;5120407;27;20027;-91
2023/09/02 10:39:34;;;;;;;0.68;0.68;;;19.20;99.90;;;;;;5139430;27;20039;-92
2023/09/02 10:42:01;;;;;;;0.77;0.73;;;19.20;99.90;;;;;;5148441;27;20246;-92
2023/09/02 10:44:29;;;;;;;0.80;0.80;;;19.20;99.90;;;;;;5133605;27;20031;-92
2023/09/02 10:46:55;;;;;;;1.42;1.00;;;19.20;99.90;;;;;;5152280;27;20031;-92
2023/09/02 10:49:23;;;;;;;1.10;0.82;;;19.10;99.90;;;;;;5144976;27;20107;-91
2023/09/02 10:51:50;;;;;;;1.15;1.02;;;19.10;99.90;;;;;;5151161;27;20018;-91
2023/09/02 10:54:15;;;;;;;0.98;0.88;;;19.10;99.90;;;;;;5139027;27;20027;-92
2023/09/02 10:56:41;;;;;;;2.33;1.25;;;19.10;99.90;;;;;;5134371;27;20045;-92
2023/09/02 10:59:07;;;;;;;1.10;1.00;;;19.10;99.90;;;;;;5151467;27;20069;-91
2023/09/02 11:01:46;;;;;;;1.25;1.17;;;19.10;99.90;;;;;;5140336;27;20027;-92
2023/09/02 11:04:12;;;;;;;1.45;1.35;;;19.00;99.90;;;;;;5129349;27;20046;-91
2023/09/02 11:07:16;;;;;;;1.38;1.27;;;19.10;99.90;;;;;;5133601;27;20022;-92
2023/09/02 11:09:53;;;;;;;1.33;1.23;;;19.10;99.90;;;;;;5118226;27;20118;-91
2023/09/02 11:12:19;;;;;;;2.92;1.25;;;19.00;99.90;;;;;;5145008;27;20489;-93
2023/09/02 11:15:06;;;;;;;1.00;1.00;;;19.00;99.90;;;;;;5146471;27;20026;-91
2023/09/02 11:17:32;;;;;;;1.13;1.02;;;19.00;99.90;;;;;;5144441;27;20030;-91
2023/09/02 11:20:03;;;;;;;1.38;1.27;;;19.00;99.90;;;;;;5148634;27;20087;-91
2023/09/02 11:22:55;;;;;;;1.33;1.23;;;19.00;99.90;;;;;;5159904;27;20030;-91
2023/09/02 11:25:28;;;;;;;1.40;1.30;;;19.00;99.90;;;;;;5144401;27;20452;-91
2023/09/02 11:27:56;;;;;;;1.35;1.20;;;19.00;99.90;;;;;;5151928;27;20022;-92
2023/09/02 11:30:23;;;;;;;1.30;1.20;;;19.00;99.90;;;;;;5143488;27;20033;-93
2023/09/02 11:32:49;;;;;;;3.78;0.93;;;19.00;99.90;;;;;;5137767;27;20049;-91
2023/09/02 11:35:35;;;;;;;0.90;0.90;;;19.10;99.90;;;;;;5149472;27;20519;-91
2023/09/02 11:38:03;;;;;;;1.20;1.10;;;19.10;99.90;;;;;;5144496;27;20495;-91
2023/09/02 11:40:29;;;;;;;1.45;1.35;;;19.10;99.90;;;;;;5157949;27;20053;-94
2023/09/02 11:43:00;;;;;;;1.38;0.95;;;19.10;99.90;;;;;;5141071;27;20071;-93
2023/09/02 11:45:35;;;;;;;1.40;1.23;;;19.10;99.90;;;;;;5150291;27;20315;-92
2023/09/02 11:48:06;;;;;;;1.02;1.00;;;19.10;99.90;;;;;;5155438;27;20038;-92
2023/09/02 11:50:31;;;;;;;0.90;0.90;;;19.10;99.90;;;;;;5151861;27;20029;-91
2023/09/02 11:53:03;;;;;;;4.75;1.52;;;19.10;99.90;;;;;;5155452;27;20229;-93
2023/09/02 11:55:29;;;;;;;3.28;1.60;;;19.10;99.90;;;;;;5150312;27;20034;-93
2023/09/02 11:57:56;;;;;;;1.58;1.30;;;19.10;99.90;;;;;;5162626;27;20033;-91
2023/09/02 12:00:26;;;;;;;1.75;1.60;;;19.20;99.90;;;;;;5167168;27;20398;-91
2023/09/02 12:02:55;;;;;;;1.83;1.65;;;19.20;99.90;;;;;;5152954;27;20436;-88
2023/09/02 12:05:22;;;;;;;6.53;2.33;;;19.20;99.90;;;;;;5128510;27;20036;-85
2023/09/02 12:07:48;;;;;;;1.63;1.52;;;19.00;99.90;;;;;;5139373;27;20022;-87
2023/09/02 12:10:16;;;;;;;4.65;1.70;;;18.80;99.90;;;;;;5148073;27;20034;-88
2023/09/02 12:12:49;;;;;;;1.75;1.58;;;18.60;99.90;;;;;;5147978;27;20038;-87
2023/09/02 12:15:16;;;;;;;2.67;1.30;;;18.50;99.90;;;;;;5163307;27;20037;-86
2023/09/02 12:17:43;;;;;;;2.53;1.63;;;18.40;99.90;;;;;;5157129;27;20030;-85
2023/09/02 12:20:11;;;;;;;3.63;1.80;;;18.40;99.90;;;;;;5152206;27;20035;-86
2023/09/02 12:22:37;;;;;;;1.55;1.40;;;18.40;99.90;;;;;;5134455;27;20491;-86
2023/09/02 12:25:17;;;;;;;3.75;2.15;;;18.40;99.90;;;;;;5138696;27;20110;-86
2023/09/02 12:27:43;;;;;;;2.78;2.13;;;18.50;99.90;;;;;;5113343;27;20029;-87
2023/09/02 12:30:13;;;;;;;2.38;2.17;;;18.50;99.90;;;;;;5153705;27;20120;-88
2023/09/02 12:32:39;;;;;;;2.78;1.50;;;18.60;99.90;;;;;;5134758;27;20468;-88
2023/09/02 12:35:11;;;;;;;1.98;1.83;;;18.60;99.90;;;;;;5148496;27;20030;-88
2023/09/02 12:37:37;;;;;;;3.97;1.75;;;18.70;99.90;;;;;;5143727;27;20026;-88
2023/09/02 12:40:29;;;;;;;1.80;1.70;;;18.70;99.90;;;;;;5134134;27;20046;-87
2023/09/02 12:42:55;;;;;;;1.65;1.50;;;18.70;99.90;;;;;;5132281;27;20057;-90
2023/09/02 12:45:46;;;;;;;2.65;1.85;;;18.80;99.90;;;;;;5146144;27;20106;-90
2023/09/02 12:48:13;;;;;;;1.67;1.50;;;18.90;99.90;;;;;;5139647;27;20102;-89
2023/09/02 12:50:39;;;;;;;1.40;1.30;;;18.90;99.90;;;;;;5154345;27;20539;-92
2023/09/02 12:53:04;;;;;;;1.60;1.50;;;19.00;99.90;;;;;;5141670;27;20026;-89